Time;durP1;ratioP1;P1;durP2;ratioP2;P2;SDS_P1;SDS_P2;PMS_P1;PMS_P2;Temp;Humidity;BMP_temperature;BMP_pressure;BME280_temperature;BME280_humidity;BME280_pressure;Samples;Min_cycle;Max_cycle;Signal;HPM_P1;HPM_P2
2022/09/15 00:01:42;;;;;;;;;;;;;;;72.57;0.00;100569.69;5073156;28;19924;-70
2022/09/15 00:04:09;;;;;;;;;;;;;;;71.12;0.00;100564.72;5109532;28;19923;-71
2022/09/15 00:06:35;;;;;;;;;;;;;;;73.71;0.00;100568.75;5108624;28;19919;-71
2022/09/15 00:09:02;;;;;;;;;;;;;;;76.03;0.00;100568.16;5109166;27;19923;-71
2022/09/15 00:11:30;;;;;;;;;;;;;;;75.69;0.00;100561.97;5096002;28;20354;-71
2022/09/15 00:13:58;;;;;;;;;;;;;;;75.22;0.00;100568.31;5109191;27;19926;-71
2022/09/15 00:16:25;;;;;;;;;;;;;;;75.15;0.00;100563.00;5109431;27;20391;-70
2022/09/15 00:18:51;;;;;;;;;;;;;;;73.32;0.00;100551.63;5107738;28;19931;-70
2022/09/15 00:21:21;;;;;;;;;;;;;;;70.37;0.00;100551.38;5106654;27;19920;-70
2022/09/15 00:23:48;;;;;;;;;;;;;;;68.81;0.18;100543.94;5090705;28;19957;-70
2022/09/15 00:26:15;;;;;;;;;;;;;;;69.61;0.14;100551.22;5110715;28;19920;-71
2022/09/15 00:28:42;;;;;;;;;;;;;;;70.03;0.00;100551.84;5107416;28;20400;-71
2022/09/15 00:31:10;;;;;;;;;;;;;;;69.87;0.18;100554.31;5096293;28;20383;-71
2022/09/15 00:33:36;;;;;;;;;;;;;;;70.93;0.00;100558.25;5108152;28;19959;-70
2022/09/15 00:36:04;;;;;;;;;;;;;;;71.49;0.00;100558.25;5107999;27;19931;-70
2022/09/15 00:38:30;;;;;;;;;;;;;;;67.92;0.74;100550.91;5092182;28;19916;-70
2022/09/15 00:40:57;;;;;;;;;;;;;;;68.87;0.66;100553.84;5102205;28;19931;-71
2022/09/15 00:43:41;;;;;;;;;;;;;;;66.66;0.81;100554.34;5106316;28;20335;-71
2022/09/15 00:46:08;;;;;;;;;;;;;;;67.07;1.73;100559.13;5106270;28;19942;-71
2022/09/15 00:48:35;;;;;;;;;;;;;;;69.19;0.93;100554.25;5107154;28;19928;-71
2022/09/15 00:51:03;;;;;;;;;;;;;;;69.44;0.45;100567.00;5106321;28;19926;-71
2022/09/15 00:53:30;;;;;;;;;;;;;;;69.58;0.58;100558.56;5105863;28;19939;-70
2022/09/15 00:55:58;;;;;;;;;;;;;;;68.56;0.67;100560.09;5108529;28;19950;-70
2022/09/15 00:58:28;;;;;;;;;;;;;;;67.24;1.15;100552.50;5093168;28;19924;-70
2022/09/15 01:00:56;;;;;;;;;;;;;;;65.68;2.14;100560.66;5103672;28;20315;-71
2022/09/15 01:03:24;;;;;;;;;;;;;;;65.11;2.04;100555.53;5103537;28;19931;-71
2022/09/15 01:05:55;;;;;;;;;;;;;;;65.06;1.99;100555.94;5084104;28;19920;-71
2022/09/15 01:08:21;;;;;;;;;;;;;;;63.91;2.94;100553.97;5107460;28;19964;-71
2022/09/15 01:10:48;;;;;;;;;;;;;;;64.92;2.61;100558.91;5108812;28;19919;-71
2022/09/15 01:13:14;;;;;;;;;;;;;;;63.62;2.93;100548.59;5106766;28;19931;-71
2022/09/15 01:15:58;;;;;;;;;;;;;;;63.01;3.11;100544.88;5112469;28;19912;-71
2022/09/15 01:18:43;;;;;;;;;;;;;;;59.73;4.38;100559.69;5106931;28;19998;-71
2022/09/15 01:21:23;;;;;;;;;;;;;;;57.47;5.85;100565.63;5099031;27;20471;-71
2022/09/15 01:24:08;;;;;;;;;;;;;;;57.42;6.27;100565.81;5092116;28;19947;-70
2022/09/15 01:26:54;;;;;;;;;;;;;;;57.66;6.24;100564.25;5098436;28;19924;-70
2022/09/15 01:29:20;;;;;;;;;;;;;;;57.16;6.28;100558.50;5099501;28;20019;-70
2022/09/15 01:34:42;;;;;;;;;;;;;;;56.44;7.38;100571.06;5100197;27;20298;-70
2022/09/15 01:37:15;;;;;;;;;;;;;;;55.97;6.69;100576.31;5104707;27;20347;-69
2022/09/15 01:39:44;;;;;;;;;;;;;;;55.52;7.13;100577.19;5103319;28;19938;-69
2022/09/15 01:42:14;;;;;;;;;;;;;;;54.73;7.45;100578.31;5107061;28;19923;-69
2022/09/15 01:44:43;;;;;;;;;;;;;;;54.66;7.82;100582.00;5098391;28;19928;-66
2022/09/15 01:47:12;;;;;;;;;;;;;;;54.82;8.18;100586.50;5100888;27;19920;-66
2022/09/15 01:49:50;;;;;;;;;;;;;;;54.93;8.00;100579.50;5101886;28;19922;-66
2022/09/15 01:52:18;;;;;;;;;;;;;;;54.82;8.51;100580.66;5102031;28;19920;-66
2022/09/15 01:54:48;;;;;;;;;;;;;;;54.81;8.35;100584.94;5102750;27;19946;-66
2022/09/15 01:57:16;;;;;;;;;;;;;;;54.76;7.42;100588.78;5103563;27;19926;-65
2022/09/15 01:59:45;;;;;;;;;;;;;;;54.53;7.69;100592.41;5111383;27;19915;-65
2022/09/15 02:02:13;;;;;;;;;;;;;;;54.37;7.83;100593.75;5108115;27;19919;-66
2022/09/15 02:04:45;;;;;;;;;;;;;;;54.23;7.50;100583.59;5103106;27;20396;-67
2022/09/15 02:07:24;;;;;;;;;;;;;;;54.14;7.75;100592.84;5107648;27;19920;-65
2022/09/15 02:09:57;;;;;;;;;;;;;;;53.93;7.98;100584.97;5108865;28;19942;-65
2022/09/15 02:12:27;;;;;;;;;;;;;;;53.87;7.88;100598.91;5108174;27;20358;-65
2022/09/15 02:15:07;;;;;;;;;;;;;;;53.89;8.24;100596.22;5089831;28;20363;-65
2022/09/15 02:17:37;;;;;;;;;;;;;;;53.80;8.71;100598.84;5105841;27;19924;-66
2022/09/15 02:20:33;;;;;;;;;;;;;;;53.54;8.38;100602.75;5111340;28;19927;-65
2022/09/15 02:23:05;;;;;;;;;;;;;;;53.47;8.74;100600.56;5083064;27;19920;-65
2022/09/15 02:25:35;;;;;;;;;;;;;;;53.46;8.75;100599.00;5106647;27;19927;-66
2022/09/15 02:28:06;;;;;;;;;;;;;;;52.57;9.29;100601.97;5111187;28;19919;-65
2022/09/15 02:30:39;;;;;;;;;;;;;;;52.18;9.15;100613.09;5090889;28;20339;-67
2022/09/15 02:33:08;;;;;;;;;;;;;;;52.09;9.21;100613.56;5092449;28;20271;-66
2022/09/15 02:35:35;;;;;;;;;;;;;;;52.57;9.20;100611.47;5109109;28;19915;-66
2022/09/15 02:38:04;;;;;;;;;;;;;;;52.22;9.28;100625.13;5111037;28;20010;-66
2022/09/15 02:40:31;;;;;;;;;;;;;;;51.51;9.55;100631.78;5107583;28;20005;-66
2022/09/15 02:43:00;;;;;;;;;;;;;;;51.64;9.15;100631.81;5108699;28;20374;-65
2022/09/15 02:45:29;;;;;;;;;;;;;;;49.66;10.39;100632.75;5108655;28;19920;-65
2022/09/15 02:47:59;;;;;;;;;;;;;;;49.85;10.06;100625.69;5109888;28;19922;-66
2022/09/15 02:50:25;;;;;;;;;;;;;;;49.83;10.11;100633.34;5088384;28;19926;-66
2022/09/15 02:52:53;;;;;;;;;;;;;;;50.84;9.32;100637.91;5108651;28;20006;-66
2022/09/15 02:55:19;;;;;;;;;;;;;;;51.12;9.54;100646.16;5110968;28;19924;-67
2022/09/15 02:57:46;;;;;;;;;;;;;;;50.15;9.87;100650.88;5108854;28;19998;-66
2022/09/15 03:00:13;;;;;;;;;;;;;;;50.52;9.62;100652.28;5110138;28;20357;-66
2022/09/15 03:02:44;;;;;;;;;;;;;;;50.38;9.89;100651.41;5110641;28;20022;-67
2022/09/15 03:05:13;;;;;;;;;;;;;;;50.11;10.03;100659.88;5104559;28;19920;-66
2022/09/15 03:07:39;;;;;;;;;;;;;;;50.19;10.29;100666.59;5107773;28;20362;-65
2022/09/15 03:10:07;;;;;;;;;;;;;;;49.14;10.55;100677.78;5109653;28;20281;-67
2022/09/15 03:12:40;;;;;;;;;;;;;;;48.22;11.52;100673.50;5107714;28;19977;-66
2022/09/15 03:15:08;;;;;;;;;;;;;;;49.56;10.55;100678.53;5108505;28;19973;-66
2022/09/15 03:17:35;;;;;;;;;;;;;;;49.05;10.69;100683.91;5110457;28;19963;-67
2022/09/15 03:20:02;;;;;;;;;;;;;;;49.23;10.63;100689.00;5108399;28;19920;-66
2022/09/15 03:22:28;;;;;;;;;;;;;;;49.78;9.91;100684.13;5105623;28;19935;-65
2022/09/15 03:24:54;;;;;;;;;;;;;;;49.13;10.62;100692.75;5109060;28;20322;-68
2022/09/15 03:27:21;;;;;;;;;;;;;;;48.32;10.82;100697.88;5112034;27;19916;-68
2022/09/15 03:29:47;;;;;;;;;;;;;;;49.09;10.70;100695.94;5110724;27;19919;-66
2022/09/15 03:32:13;;;;;;;;;;;;;;;47.98;11.39;100703.69;5111413;28;19927;-67
2022/09/15 03:34:39;;;;;;;;;;;;;;;47.44;11.68;100709.72;5112568;28;19924;-67
2022/09/15 03:37:06;;;;;;;;;;;;;;;47.24;11.81;100712.84;5112172;27;19924;-65
2022/09/15 03:39:32;;;;;;;;;;;;;;;48.39;10.59;100708.84;5107617;28;19924;-66
2022/09/15 03:41:59;;;;;;;;;;;;;;;48.71;10.83;100701.38;5106481;28;19916;-64
2022/09/15 03:44:25;;;;;;;;;;;;;;;47.10;11.56;100714.63;5110048;28;19931;-69
2022/09/15 03:46:52;;;;;;;;;;;;;;;47.28;11.33;100713.38;5096859;27;20370;-67
2022/09/15 03:49:18;;;;;;;;;;;;;;;48.24;10.62;100711.25;5105070;27;19920;-70
2022/09/15 03:51:44;;;;;;;;;;;;;;;48.86;10.42;100703.94;5107685;28;19916;-67
2022/09/15 03:54:11;;;;;;;;;;;;;;;48.62;10.18;100718.22;5107035;27;20270;-68
2022/09/15 03:56:37;;;;;;;;;;;;;;;49.23;10.20;100712.13;5102282;28;19981;-68
2022/09/15 03:59:04;;;;;;;;;;;;;;;49.58;10.03;100717.13;5108843;27;20038;-68
2022/09/15 04:01:31;;;;;;;;;;;;;;;49.11;9.75;100707.72;5098251;28;19916;-68
2022/09/15 04:03:58;;;;;;;;;;;;;;;50.15;8.81;100717.38;5103808;28;20031;-67
2022/09/15 04:06:25;;;;;;;;;;;;;;;49.46;9.54;100718.53;5082600;28;20015;-69
2022/09/15 04:08:52;;;;;;;;;;;;;;;49.12;9.64;100715.06;5101695;28;19923;-69
2022/09/15 04:11:19;;;;;;;;;;;;;;;48.52;9.45;100720.59;5105827;28;19920;-68
2022/09/15 04:13:45;;;;;;;;;;;;;;;48.03;9.59;100719.41;5079175;28;19920;-66
2022/09/15 04:16:13;;;;;;;;;;;;;;;47.67;9.63;100732.78;5107872;28;20007;-67
2022/09/15 04:18:40;;;;;;;;;;;;;;;49.19;9.09;100722.38;5103322;27;19926;-68
2022/09/15 04:21:08;;;;;;;;;;;;;;;49.43;9.01;100727.50;5110127;27;19941;-68
2022/09/15 04:23:35;;;;;;;;;;;;;;;48.40;9.50;100731.38;5112720;27;19920;-68
2022/09/15 04:26:03;;;;;;;;;;;;;;;48.36;8.94;100730.88;5126611;27;19922;-68
2022/09/15 04:28:32;;;;;;;;;;;;;;;47.45;9.84;100742.19;5126784;27;19920;-67
2022/09/15 04:31:24;;;;;;;;;;;;;;;48.46;8.95;100740.00;5117800;27;19923;-68
2022/09/15 04:33:54;;;;;;;;;;;;;;;48.19;8.95;100740.88;5102772;28;19920;-68
2022/09/15 04:36:22;;;;;;;;;;;;;;;48.03;9.11;100751.91;5125308;27;20426;-68
2022/09/15 04:38:52;;;;;;;;;;;;;;;47.22;9.97;100753.66;5112735;27;19920;-68
2022/09/15 04:41:18;;;;;;;;;;;;;;;47.44;9.32;100750.03;5130673;27;20009;-69
2022/09/15 04:43:45;;;;;;;;;;;;;;;47.06;9.53;100747.84;5112254;27;19915;-70
2022/09/15 04:46:11;;;;;;;;;;;;;;;46.38;10.02;100747.50;5107415;27;20400;-68
2022/09/15 04:48:38;;;;;;;;;;;;;;;48.33;9.14;100742.69;5105255;28;19998;-70
2022/09/15 04:51:05;;;;;;;;;;;;;;;47.38;9.86;100752.09;5106971;28;19946;-70
2022/09/15 04:53:31;;;;;;;;;;;;;;;47.72;9.47;100752.16;5097449;28;19971;-68
2022/09/15 04:56:02;;;;;;;;;;;;;;;47.51;9.64;100748.75;5097663;28;19920;-68
2022/09/15 04:58:28;;;;;;;;;;;;;;;48.06;9.24;100753.72;5110921;28;19931;-70
2022/09/15 05:00:54;;;;;;;;;;;;;;;47.95;9.16;100747.22;5107365;28;19930;-70
2022/09/15 05:03:21;;;;;;;;;;;;;;;48.20;9.32;100748.19;5104084;28;19926;-69
2022/09/15 05:05:47;;;;;;;;;;;;;;;48.02;9.38;100758.97;5097570;28;20289;-67
2022/09/15 05:08:13;;;;;;;;;;;;;;;47.94;9.37;100762.91;5105104;28;19924;-69
2022/09/15 05:10:40;;;;;;;;;;;;;;;47.22;9.50;100756.53;5110785;27;19916;-68
2022/09/15 05:13:06;;;;;;;;;;;;;;;47.73;8.72;100765.25;5112881;28;20010;-66
2022/09/15 05:15:32;;;;;;;;;;;;;;;48.03;8.67;100760.53;5103323;28;19916;-67
2022/09/15 05:17:59;;;;;;;;;;;;;;;48.12;8.75;100768.13;5099386;27;19920;-67
2022/09/15 05:20:25;;;;;;;;;;;;;;;47.23;8.83;100771.72;5114858;27;19926;-67
2022/09/15 05:22:51;;;;;;;;;;;;;;;48.56;8.18;100772.25;5108120;28;19919;-68
2022/09/15 05:25:17;;;;;;;;;;;;;;;48.84;8.29;100781.59;5114025;28;20263;-67
2022/09/15 05:27:44;;;;;;;;;;;;;;;48.47;7.90;100787.72;5108872;27;19924;-67
2022/09/15 05:30:10;;;;;;;;;;;;;;;48.65;8.23;100792.94;5112040;28;19916;-68
2022/09/15 05:32:38;;;;;;;;;;;;;;;48.75;8.70;100792.66;5097321;27;19927;-66
2022/09/15 05:35:05;;;;;;;;;;;;;;;48.58;8.10;100799.28;5108585;28;19958;-69
2022/09/15 05:37:32;;;;;;;;;;;;;;;48.56;7.66;100796.09;5116123;27;20417;-68
2022/09/15 05:39:58;;;;;;;;;;;;;;;48.67;7.64;100796.09;5096300;27;19974;-66
2022/09/15 05:42:25;;;;;;;;;;;;;;;48.77;8.54;100801.56;5103061;27;20002;-67
2022/09/15 05:44:51;;;;;;;;;;;;;;;48.81;8.07;100793.41;5098756;27;20425;-68
2022/09/15 05:47:18;;;;;;;;;;;;;;;48.40;8.04;100788.28;5098516;27;19916;-69
2022/09/15 05:49:44;;;;;;;;;;;;;;;47.73;7.91;100788.28;5098527;27;19959;-68
2022/09/15 05:52:12;;;;;;;;;;;;;;;47.18;8.14;100784.00;5106438;27;19919;-68
2022/09/15 05:54:39;;;;;;;;;;;;;;;47.66;7.86;100777.31;5129347;27;19915;-67
2022/09/15 05:57:05;;;;;;;;;;;;;;;46.31;8.47;100776.72;5129769;27;20365;-68
2022/09/15 05:59:33;;;;;;;;;;;;;;;47.74;7.64;100789.88;5095130;28;19962;-69
2022/09/15 06:01:59;;;;;;;;;;;;;;;48.03;7.13;100788.59;5105661;27;19927;-66
2022/09/15 06:04:25;;;;;;;;;;;;;;;48.49;7.41;100785.13;5100110;27;19923;-67
2022/09/15 06:06:52;;;;;;;;;;;;;;;48.05;7.14;100788.84;5098658;27;19920;-68
2022/09/15 06:09:18;;;;;;;;;;;;;;;48.55;7.59;100788.75;5098608;27;19920;-68
2022/09/15 06:11:44;;;;;;;;;;;;;;;47.78;8.51;100796.97;5107018;27;20330;-68
2022/09/15 06:14:12;;;;;;;;;;;;;;;48.09;7.20;100798.78;5099636;28;19924;-67
2022/09/15 06:16:38;;;;;;;;;;;;;;;48.31;7.92;100785.69;5096030;28;19920;-69
2022/09/15 06:19:04;;;;;;;;;;;;;;;48.32;7.76;100793.03;5102906;28;19920;-67
2022/09/15 06:21:31;;;;;;;;;;;;;;;48.34;7.54;100793.28;5095646;28;19930;-67
2022/09/15 06:23:58;;;;;;;;;;;;;;;48.33;7.83;100792.50;5095624;28;19916;-67
2022/09/15 06:26:25;;;;;;;;;;;;;;;48.23;8.49;100793.31;5108940;28;20332;-68
2022/09/15 06:28:56;;;;;;;;;;;;;;;48.22;8.58;100792.47;5110730;28;19959;-69
2022/09/15 06:31:23;;;;;;;;;;;;;;;47.54;7.95;100800.31;5100987;28;19920;-69
2022/09/15 06:33:50;;;;;;;;;;;;;;;47.77;7.89;100786.75;5106175;28;19915;-67
2022/09/15 06:36:17;;;;;;;;;;;;;;;47.78;8.00;100790.41;5100775;28;20366;-67
2022/09/15 06:38:44;;;;;;;;;;;;;;;47.53;7.60;100786.44;5095370;28;19920;-69
2022/09/15 06:41:11;;;;;;;;;;;;;;;47.95;7.74;100788.34;5106696;28;19920;-69
2022/09/15 06:43:38;;;;;;;;;;;;;;;48.03;7.31;100785.69;5101135;28;19961;-69
2022/09/15 06:46:06;;;;;;;;;;;;;;;48.06;7.70;100794.06;5083237;28;20348;-70
2022/09/15 06:48:33;;;;;;;;;;;;;;;47.99;7.41;100803.25;5095200;28;19924;-67
2022/09/15 06:50:59;;;;;;;;;;;;;;;47.98;7.86;100807.47;5099041;28;20031;-70
2022/09/15 06:53:32;;;;;;;;;;;;;;;47.51;8.66;100817.88;5100957;28;20410;-67
2022/09/15 06:56:26;;;;;;;;;;;;;;;47.39;8.75;100817.03;5099970;28;20387;-67
2022/09/15 06:58:53;;;;;;;;;;;;;;;46.71;8.82;100808.63;5099691;28;19931;-71
2022/09/15 07:01:21;;;;;;;;;;;;;;;47.05;8.82;100803.84;5101227;28;19924;-69
2022/09/15 07:03:47;;;;;;;;;;;;;;;47.06;8.80;100802.53;5112270;28;19920;-68
2022/09/15 07:06:13;;;;;;;;;;;;;;;47.09;8.43;100810.91;5107197;28;19952;-69
2022/09/15 07:08:40;;;;;;;;;;;;;;;47.18;7.82;100807.03;5108780;27;19927;-69
2022/09/15 07:11:07;;;;;;;;;;;;;;;47.18;7.99;100810.69;5108160;28;19916;-68
2022/09/15 07:13:34;;;;;;;;;;;;;;;47.07;8.11;100804.88;5074119;28;19989;-68
2022/09/15 07:16:02;;;;;;;;;;;;;;;47.06;9.08;100811.94;5107520;28;19967;-69
2022/09/15 07:18:30;;;;;;;;;;;;;;;46.94;7.83;100811.09;5108911;28;19935;-70
2022/09/15 07:21:00;;;;;;;;;;;;;;;46.90;7.96;100813.44;5117452;27;20022;-70
2022/09/15 07:23:27;;;;;;;;;;;;;;;47.00;8.17;100818.97;5131837;27;19924;-69
2022/09/15 07:26:13;;;;;;;;;;;;;;;46.19;8.62;100814.53;5132139;27;19919;-69
2022/09/15 07:28:44;;;;;;;;;;;;;;;46.54;8.52;100814.28;5113900;28;19920;-69
2022/09/15 07:31:11;;;;;;;;;;;;;;;46.56;8.97;100814.56;5114239;28;19955;-70
2022/09/15 07:33:37;;;;;;;;;;;;;;;46.60;8.82;100820.84;5104786;28;19916;-70
2022/09/15 07:36:05;;;;;;;;;;;;;;;46.53;8.45;100815.59;5099075;28;20402;-69
2022/09/15 07:38:32;;;;;;;;;;;;;;;46.59;8.44;100819.28;5099301;28;19915;-71
2022/09/15 07:41:05;;;;;;;;;;;;;;;46.26;9.13;100811.97;5083111;28;19951;-69
2022/09/15 07:43:32;;;;;;;;;;;;;;;46.17;8.79;100802.78;5100867;27;20412;-70
2022/09/15 07:45:59;;;;;;;;;;;;;;;46.17;8.53;100812.19;5111747;27;19912;-68
2022/09/15 07:48:25;;;;;;;;;;;;;;;46.22;8.88;100811.44;5112372;28;19919;-69
2022/09/15 07:50:51;;;;;;;;;;;;;;;46.30;9.38;100811.72;5098254;28;19916;-69
2022/09/15 07:53:18;;;;;;;;;;;;;;;46.06;9.01;100812.09;5100210;27;20026;-69
2022/09/15 07:55:44;;;;;;;;;;;;;;;46.16;9.31;100804.06;5100764;27;19967;-69
2022/09/15 07:58:10;;;;;;;;;;;;;;;46.28;10.49;100812.25;5103846;27;19973;-69
2022/09/15 08:00:38;;;;;;;;;;;;;;;46.49;11.78;100807.19;5101639;27;19924;-69
2022/09/15 08:03:04;;;;;;;;;;;;;;;46.75;12.40;100798.44;5090353;28;20301;-68
2022/09/15 08:05:31;;;;;;;;;;;;;;;46.90;12.61;100804.81;5100485;27;19920;-69
2022/09/15 08:07:57;;;;;;;;;;;;;;;47.04;12.91;100799.34;5100211;27;19920;-69
2022/09/15 08:10:24;;;;;;;;;;;;;;;47.01;13.54;100791.75;5095691;27;19945;-69
2022/09/15 08:12:51;;;;;;;;;;;;;;;47.07;13.29;100801.22;5096928;28;20290;-68
2022/09/15 08:15:18;;;;;;;;;;;;;;;46.92;14.08;100804.31;5103479;28;19972;-68
2022/09/15 08:17:45;;;;;;;;;;;;;;;47.00;13.46;100804.56;5084761;28;20413;-68
2022/09/15 08:20:12;;;;;;;;;;;;;;;46.94;14.14;100804.56;5127746;27;19982;-68
2022/09/15 08:22:39;;;;;;;;;;;;;;;46.87;13.67;100800.09;5098654;27;19924;-68
2022/09/15 08:25:06;;;;;;;;;;;;;;;46.85;14.02;100805.56;5108432;28;20378;-67
2022/09/15 08:27:32;;;;;;;;;;;;;;;46.84;14.18;100815.50;5116379;27;19934;-67
2022/09/15 08:29:59;;;;;;;;;;;;;;;47.04;14.25;100803.03;5113029;27;19915;-65
2022/09/15 08:32:25;;;;;;;;;;;;;;;46.72;14.71;100805.22;5103785;28;19920;-65
2022/09/15 08:34:51;;;;;;;;;;;;;;;46.81;14.44;100810.78;5109686;28;20412;-66
2022/09/15 08:37:18;;;;;;;;;;;;;;;46.87;15.01;100805.84;5112216;27;20006;-66
2022/09/15 08:39:45;;;;;;;;;;;;;;;47.06;15.06;100806.19;5092899;28;19927;-66
2022/09/15 08:42:15;;;;;;;;;;;;;;;47.02;15.39;100805.63;5127404;27;19920;-66
2022/09/15 08:44:42;;;;;;;;;;;;;;;47.05;16.18;100800.94;5098259;28;19926;-66
2022/09/15 08:47:14;;;;;;;;;;;;;;;47.05;16.93;100803.84;5107692;28;19928;-66
2022/09/15 08:49:50;;;;;;;;;;;;;;;47.25;17.31;100818.06;5118627;27;19927;-66
2022/09/15 08:52:29;;;;;;;;;;;;;;;46.96;16.77;100811.38;5101738;27;20391;-66
2022/09/15 08:54:57;;;;;;;;;;;;;;;46.64;15.05;100810.66;5124576;27;20377;-65
2022/09/15 08:57:24;;;;;;;;;;;;;;;46.69;13.68;100805.47;5113186;27;20015;-66
2022/09/15 08:59:53;;;;;;;;;;;;;;;46.73;12.92;100803.94;5108644;27;19927;-66
2022/09/15 09:02:37;;;;;;;;;;;;;;;46.71;12.71;100809.41;5122147;27;20297;-66
2022/09/15 09:05:07;;;;;;;;;;;;;;;46.54;12.46;100811.41;5108087;28;20397;-66
2022/09/15 09:07:33;;;;;;;;;;;;;;;46.42;12.29;100809.75;5105113;28;19986;-66
2022/09/15 09:10:07;;;;;;;;;;;;;;;46.21;12.95;100812.72;5100095;28;20374;-66
2022/09/15 09:12:42;;;;;;;;;;;;;;;46.14;12.75;100807.44;5128094;27;19919;-66
2022/09/15 09:15:17;;;;;;;;;;;;;;;46.11;12.43;100813.41;5109080;27;19919;-66
2022/09/15 09:18:08;;;;;;;;;;;;;;;46.17;12.62;100809.31;5110018;27;20386;-66
2022/09/15 09:20:49;;;;;;;;;;;;;;;46.02;12.68;100808.66;5128014;27;19928;-66
2022/09/15 09:23:22;;;;;;;;;;;;;;;45.89;12.60;100809.03;5110086;27;19927;-66
2022/09/15 09:25:48;;;;;;;;;;;;;;;46.07;11.94;100816.53;5108835;27;19920;-66
2022/09/15 09:28:31;;;;;;;;;;;;;;;45.91;12.26;100814.28;5127693;27;20013;-66
2022/09/15 09:31:06;;;;;;;;;;;;;;;45.94;12.87;100821.88;5099836;28;19949;-66
2022/09/15 09:33:41;;;;;;;;;;;;;;;45.95;12.15;100817.69;5114020;28;19985;-66
2022/09/15 09:36:10;;;;;;;;;;;;;;;45.91;12.16;100828.66;5098509;28;19922;-66
2022/09/15 09:38:44;;;;;;;;;;;;;;;45.68;12.54;100822.69;5110038;28;19947;-67
2022/09/15 09:41:12;;;;;;;;;;;;;;;45.77;12.66;100825.38;5088196;28;19923;-67
2022/09/15 09:43:39;;;;;;;;;;;;;;;45.90;13.42;100827.84;5116909;27;19915;-66
2022/09/15 09:46:15;;;;;;;;;;;;;;;46.02;13.71;100828.78;5103401;27;19916;-66
2022/09/15 09:48:51;;;;;;;;;;;;;;;46.17;13.69;100834.38;5097206;28;19920;-66
2022/09/15 09:51:30;;;;;;;;;;;;;;;46.19;14.60;100832.56;5105159;28;19924;-67
2022/09/15 09:54:02;;;;;;;;;;;;;;;46.33;14.96;100831.63;5106963;28;20014;-66
2022/09/15 09:56:29;;;;;;;;;;;;;;;46.44;15.35;100833.03;5097127;28;20018;-66
2022/09/15 09:58:55;;;;;;;;;;;;;;;46.58;15.45;100829.19;5108292;28;19920;-66
2022/09/15 10:01:23;;;;;;;;;;;;;;;46.53;16.31;100829.97;5102495;28;19939;-66
2022/09/15 10:04:09;;;;;;;;;;;;;;;46.54;16.50;100840.16;5113365;28;19955;-66
2022/09/15 10:06:35;;;;;;;;;;;;;;;46.63;17.73;100837.84;5099212;27;19959;-67
2022/09/15 10:09:07;;;;;;;;;;;;;;;46.78;18.28;100839.81;5121260;27;20282;-66
2022/09/15 10:11:43;;;;;;;;;;;;;;;46.92;18.81;100848.25;5115096;27;20018;-65
2022/09/15 10:14:18;;;;;;;;;;;;;;;47.05;19.31;100847.78;5102100;27;20386;-66
2022/09/15 10:16:55;;;;;;;;;;;;;;;47.08;20.06;100846.75;5095499;28;20385;-66
2022/09/15 10:19:21;;;;;;;;;;;;;;;47.20;19.97;100847.59;5104238;28;19927;-66
2022/09/15 10:21:47;;;;;;;;;;;;;;;47.27;19.41;100841.34;5118929;27;19919;-67
2022/09/15 10:24:37;;;;;;;;;;;;;;;47.23;20.11;100850.25;5099350;27;21436;-67
2022/09/15 10:27:15;;;;;;;;;;;;;;;47.40;20.15;100852.34;5120289;27;20366;-68
2022/09/15 10:29:41;;;;;;;;;;;;;;;47.26;19.96;100854.19;5116871;27;19926;-67
2022/09/15 10:32:43;;;;;;;;;;;;;;;47.28;20.21;100857.31;5102211;27;19923;-67
2022/09/15 10:35:11;;;;;;;;;;;;;;;47.32;20.20;100857.06;5024995;28;20049;-67
2022/09/15 10:37:40;;;;;;;;;;;;;;;47.34;19.80;100860.22;5095293;27;20011;-68
2022/09/15 10:40:19;;;;;;;;;;;;;;;47.34;19.67;100860.22;5124108;27;19926;-68
2022/09/15 10:42:50;;;;;;;;;;;;;;;47.35;20.10;100850.25;5096905;28;19924;-68
2022/09/15 10:45:21;;;;;;;;;;;;;;;47.38;19.42;100857.84;5104628;28;19987;-68
2022/09/15 10:47:53;;;;;;;;;;;;;;;47.20;19.75;100854.13;5100386;27;20331;-68
2022/09/15 10:50:23;;;;;;;;;;;;;;;47.07;20.43;100858.78;5099707;28;20366;-68
2022/09/15 10:52:50;;;;;;;;;;;;;;;47.21;19.87;100861.47;5124123;27;19920;-68
2022/09/15 10:55:16;;;;;;;;;;;;;;;47.14;20.20;100864.06;5109486;28;19911;-67
2022/09/15 10:57:45;;;;;;;;;;;;;;;47.20;19.67;100857.00;5091197;28;20404;-68
2022/09/15 11:00:17;;;;;;;;;;;;;;;47.21;19.82;100864.34;5125173;28;20002;-68
2022/09/15 11:02:47;;;;;;;;;;;;;;;47.16;20.03;100862.25;5102917;28;19920;-68
2022/09/15 11:05:28;;;;;;;;;;;;;;;47.20;19.45;100856.22;5106118;28;20362;-67
2022/09/15 11:07:54;;;;;;;;;;;;;;;47.05;19.42;100862.19;5099214;28;19924;-68
2022/09/15 11:10:24;;;;;;;;;;;;;;;46.98;18.79;100854.03;5126325;28;19922;-67
2022/09/15 11:12:59;;;;;;;;;;;;;;;46.87;17.97;100863.41;5102109;28;19965;-67
2022/09/15 11:15:32;;;;;;;;;;;;;;;46.74;17.42;100860.16;5113666;28;20015;-67
2022/09/15 11:18:17;;;;;;;;;;;;;;;46.68;17.09;100862.19;5121289;28;19920;-66
2022/09/15 11:21:01;;;;;;;;;;;;;;;46.51;16.68;100869.97;5096355;28;19927;-66
2022/09/15 11:23:39;;;;;;;;;;;;;;;46.10;16.52;100860.69;5102449;28;19919;-67
2022/09/15 11:26:05;;;;;;;;;;;;;;;45.78;15.98;100866.38;5123317;28;20412;-66
2022/09/15 11:28:34;;;;;;;;;;;;;;;45.87;15.38;100868.31;5099278;28;19916;-68
2022/09/15 11:31:09;;;;;;;;;;;;;;;45.96;14.00;100866.03;5120395;28;20271;-66
2022/09/15 11:33:58;;;;;;;;;;;;;;;45.98;13.46;100868.44;5114202;28;20010;-66
2022/09/15 11:36:24;;;;;;;;;;;;;;;45.66;12.79;100867.59;5099829;28;20385;-66
2022/09/15 11:38:54;;;;;;;;;;;;;;;45.68;13.36;100862.13;5102024;28;19916;-66
2022/09/15 11:41:29;;;;;;;;;;;;;;;45.61;13.10;100874.03;5114638;28;20415;-66
2022/09/15 11:43:59;;;;;;;;;;;;;;;45.44;12.77;100877.50;5120294;28;19915;-66
2022/09/15 11:46:31;;;;;;;;;;;;;;;45.44;13.40;100876.72;5081494;27;19916;-67
2022/09/15 11:49:04;;;;;;;;;;;;;;;45.39;12.72;100878.22;5125347;27;19915;-67
2022/09/15 11:51:33;;;;;;;;;;;;;;;45.37;12.94;100877.16;5116879;27;19931;-67
2022/09/15 11:54:18;;;;;;;;;;;;;;;45.34;12.98;100876.06;5107399;27;19926;-67
2022/09/15 11:56:46;;;;;;;;;;;;;;;45.36;12.30;100887.06;5096618;27;19935;-67
2022/09/15 11:59:31;;;;;;;;;;;;;;;45.22;12.48;100882.13;5097838;28;19916;-66
2022/09/15 12:02:09;;;;;;;;;;;;;;;45.17;13.04;100893.06;5105479;28;19959;-66
2022/09/15 12:04:57;;;;;;;;;;;;;;;45.08;12.96;100892.41;5113311;28;19969;-66
2022/09/15 12:07:27;;;;;;;;;;;;;;;45.16;12.57;100900.09;5114500;27;20326;-66
2022/09/15 12:09:54;;;;;;;;;;;;;;;45.08;12.59;100901.81;5108779;27;19920;-67
2022/09/15 12:12:21;;;;;;;;;;;;;;;45.07;12.85;100899.44;5129483;27;19915;-67
2022/09/15 12:14:49;;;;;;;;;;;;;;;45.01;12.35;100902.22;5104525;27;19920;-67
2022/09/15 12:17:30;;;;;;;;;;;;;;;44.89;12.86;100907.03;5119144;27;19969;-67
2022/09/15 12:20:00;;;;;;;;;;;;;;;44.85;12.56;100902.75;5083609;28;19966;-67
2022/09/15 12:22:33;;;;;;;;;;;;;;;44.88;12.99;100905.44;5129140;27;20018;-67
2022/09/15 12:25:08;;;;;;;;;;;;;;;45.00;13.29;100905.59;5108038;27;19919;-66
2022/09/15 12:27:34;;;;;;;;;;;;;;;44.88;13.13;100911.16;5113886;27;19950;-66
2022/09/15 12:30:01;;;;;;;;;;;;;;;44.89;13.79;100911.97;5124735;27;19919;-66
2022/09/15 12:32:32;;;;;;;;;;;;;;;44.68;13.16;100921.78;5101877;27;19920;-68
2022/09/15 12:35:01;;;;;;;;;;;;;;;44.33;13.43;100928.22;5124240;27;19916;-67
2022/09/15 12:37:35;;;;;;;;;;;;;;;44.45;13.11;100926.34;5115042;27;20026;-67
2022/09/15 12:40:05;;;;;;;;;;;;;;;44.71;13.05;100927.34;5105886;27;20324;-67
2022/09/15 12:42:32;;;;;;;;;;;;;;;44.69;13.65;100931.97;5128710;27;19927;-67
2022/09/15 12:44:58;;;;;;;;;;;;;;;44.62;13.18;100933.16;5106861;27;19915;-66
2022/09/15 12:47:27;;;;;;;;;;;;;;;44.76;13.63;100928.69;5116222;27;19931;-66
2022/09/15 12:49:57;;;;;;;;;;;;;;;44.64;13.36;100942.06;5122463;27;20085;-67
2022/09/15 12:52:24;;;;;;;;;;;;;;;44.71;13.84;100946.59;5101824;27;19920;-67
2022/09/15 12:54:53;;;;;;;;;;;;;;;44.62;13.31;100947.50;5107743;28;20370;-67
2022/09/15 12:57:23;;;;;;;;;;;;;;;44.72;13.42;100945.34;5112411;27;19963;-67
2022/09/15 12:59:49;;;;;;;;;;;;;;;44.64;13.19;100947.00;5090071;28;19927;-68